Terminal Aerodrome Forecast
Issued by NWS

Home | Current Version | Previous Version | Text Only | Print | Product List | Glossary Off
Versions: 1 2 3 4 5 6 7 8 9 10 11 12 13 14 15 16 17 18 19 20 21 22 23 24 25 26 27 28 29 30 31 32 33 34 35 36 37 38 39 40 41 42 43 44 45 46 47 48 49

000
FTUS43 KLOT 061459 AAA
TAFGYY
TAF AMD
KGYY 061459Z 0615/0712 21006KT P6SM FEW060 SCT250
     FM061700 23010KT P6SM BKN025
     FM070000 21006KT P6SM BKN120
     FM070800 21009KT P6SM OVC080=

USA.gov is the U.S. government's official web portal to all federal, state and local government web resources and services.